createdAt,value
2016-04-21T00:00:55.161Z,1024.28
2016-04-21T00:01:55.164Z,1024.28
2016-04-21T00:02:55.370Z,1024.29
2016-04-21T00:03:55.170Z,1024.25
2016-04-21T00:04:55.360Z,1024.27
2016-04-21T00:05:55.347Z,1024.27
2016-04-21T00:06:55.146Z,1024.26
2016-04-21T00:07:55.336Z,1024.23
2016-04-21T00:08:55.136Z,1024.23
2016-04-21T00:09:55.124Z,1024.2
2016-04-21T00:10:55.345Z,1024.19
2016-04-21T00:11:55.332Z,1024.2
2016-04-21T00:12:55.116Z,1024.16
2016-04-21T00:13:55.322Z,1024.14
2016-04-21T00:14:55.308Z,1024.13
2016-04-21T00:15:55.311Z,1024.15
2016-04-21T00:16:55.298Z,1024.11
2016-04-21T00:17:55.098Z,1024.13
2016-04-21T00:18:55.101Z,1024.07
2016-04-21T00:19:55.291Z,1024.05
2016-04-21T00:20:55.091Z,1024.03
2016-04-21T00:21:55.281Z,1024.03
2016-04-21T00:22:55.080Z,1024.07
2016-04-21T00:23:55.270Z,1024.08
2016-04-21T00:24:55.070Z,1024.01
2016-04-21T00:25:55.056Z,1024.09
2016-04-21T00:26:55.059Z,1024.08
2016-04-21T00:27:55.047Z,1024.07
2016-04-21T00:28:55.253Z,1024.08
2016-04-21T00:29:55.240Z,1024.03
2016-04-21T00:30:55.242Z,1024.05
2016-04-21T00:31:55.245Z,1024.02
2016-04-21T00:32:55.231Z,1024.04
2016-04-21T00:33:55.234Z,1024.02
2016-04-21T00:34:55.019Z,1024.03
2016-04-21T00:35:55.224Z,1024.01
2016-04-21T00:36:55.025Z,1024.01
2016-04-21T00:37:55.011Z,1023.98
2016-04-21T00:38:54.997Z,1023.96
2016-04-21T00:39:55.205Z,1023.95
2016-04-21T00:40:55.191Z,1023.95
2016-04-21T00:41:55.193Z,1023.98
2016-04-21T00:42:54.993Z,1023.94
2016-04-21T00:43:54.980Z,1023.93
2016-04-21T00:44:55.186Z,1023.91
2016-04-21T00:45:54.971Z,1023.92
2016-04-21T00:46:55.176Z,1023.91
2016-04-21T00:47:55.163Z,1023.88
2016-04-21T00:48:54.962Z,1023.85
2016-04-21T00:49:55.168Z,1023.89
2016-04-21T00:50:55.155Z,1023.88
2016-04-21T00:51:54.954Z,1023.88
2016-04-21T00:52:55.146Z,1023.87
2016-04-21T00:53:54.945Z,1023.85
2016-04-21T00:54:55.135Z,1023.83
2016-04-21T00:55:54.935Z,1023.86
2016-04-21T00:56:54.921Z,1023.85
2016-04-21T00:57:54.924Z,1023.86
2016-04-21T00:58:55.114Z,1023.87
2016-04-21T00:59:55.117Z,1023.89
2016-04-21T01:00:54.917Z,1023.91
2016-04-21T01:01:54.904Z,1023.92
2016-04-21T01:02:54.891Z,1023.88
2016-04-21T01:03:55.097Z,1023.85
2016-04-21T01:04:55.115Z,1023.85
2016-04-21T01:05:54.944Z,1023.79
2016-04-21T01:06:54.977Z,1023.79
2016-04-21T01:07:55.259Z,1023.78
2016-04-21T01:08:55.275Z,1023.77
2016-04-21T01:09:55.298Z,1023.74
2016-04-21T01:10:55.318Z,1023.74
2016-04-21T01:11:55.321Z,1023.73
2016-04-21T01:12:55.340Z,1023.68
2016-04-21T01:13:55.344Z,1023.7
2016-04-21T01:14:55.359Z,1023.7
2016-04-21T01:15:55.149Z,1023.67
2016-04-21T01:16:55.157Z,1023.65
2016-04-21T01:17:55.353Z,1023.66
2016-04-21T01:18:55.361Z,1023.64
2016-04-21T01:19:55.354Z,1023.62
2016-04-21T01:20:55.359Z,1023.63
2016-04-21T01:21:55.378Z,1023.63
2016-04-21T01:22:55.435Z,1023.6
2016-04-21T01:23:55.345Z,1023.63
2016-04-21T01:24:55.147Z,1023.63
2016-04-21T01:25:55.339Z,1023.62
2016-04-21T01:26:55.342Z,1023.65
2016-04-21T01:27:55.330Z,1023.6
2016-04-21T01:28:55.333Z,1023.57
2016-04-21T01:29:55.336Z,1023.58
2016-04-21T01:30:55.120Z,1023.56
2016-04-21T01:31:55.326Z,1023.56
2016-04-21T01:32:55.314Z,1023.56
2016-04-21T01:33:55.317Z,1023.53
2016-04-21T01:34:55.304Z,1023.54
2016-04-21T01:35:55.307Z,1023.53
2016-04-21T01:36:55.310Z,1023.49
2016-04-21T01:37:55.093Z,1023.48
2016-04-21T01:38:55.285Z,1023.41
2016-04-21T01:39:55.084Z,1023.43
2016-04-21T01:40:55.274Z,1023.4
2016-04-21T01:41:55.276Z,1023.39
2016-04-21T01:42:55.061Z,1023.38
2016-04-21T01:43:55.063Z,1023.37
2016-04-21T01:44:55.050Z,1023.39
2016-04-21T01:45:55.053Z,1023.36
2016-04-21T01:46:55.259Z,1023.4
2016-04-21T01:47:55.043Z,1023.37
2016-04-21T01:48:55.248Z,1023.36
2016-04-21T01:49:55.236Z,1023.38
2016-04-21T01:50:55.035Z,1023.33
2016-04-21T01:51:55.225Z,1023.34
2016-04-21T01:52:55.025Z,1023.32
2016-04-21T01:53:55.012Z,1023.31
2016-04-21T01:54:55.219Z,1023.31
2016-04-21T01:55:55.205Z,1023.25
2016-04-21T01:56:55.005Z,1023.28
2016-04-21T01:57:55.210Z,1023.29
2016-04-21T01:58:55.213Z,1023.28
2016-04-21T01:59:54.981Z,1023.26
2016-04-21T02:00:54.984Z,1023.28
2016-04-21T02:01:55.190Z,1023.25
2016-04-21T02:02:54.974Z,1023.27
2016-04-21T02:03:54.977Z,1023.27
2016-04-21T02:04:54.963Z,1023.24
2016-04-21T02:05:55.169Z,1023.24
2016-04-21T02:06:55.156Z,1023.23
2016-04-21T02:07:55.160Z,1023.21
2016-04-21T02:08:54.943Z,1023.24
2016-04-21T02:09:55.149Z,1023.24
2016-04-21T02:10:54.932Z,1023.22
2016-04-21T02:11:54.935Z,1023.22
2016-04-21T02:12:54.922Z,1023.17
2016-04-21T02:13:55.129Z,1023.18
2016-04-21T02:14:54.929Z,1023.2
2016-04-21T02:15:55.118Z,1023.21
2016-04-21T02:16:55.120Z,1023.21
2016-04-21T02:17:55.108Z,1023.21
2016-04-21T02:18:55.094Z,1023.18
2016-04-21T02:19:54.894Z,1023.2
2016-04-21T02:20:54.898Z,1023.2
2016-04-21T02:21:54.884Z,1023.2
2016-04-21T02:22:55.074Z,1023.18
2016-04-21T02:23:54.874Z,1023.23
2016-04-21T02:24:55.096Z,1023.18
2016-04-21T02:25:55.067Z,1023.2
2016-04-21T02:26:55.070Z,1023.13
2016-04-21T02:27:55.057Z,1023.15
2016-04-21T02:28:55.060Z,1023.17
2016-04-21T02:29:54.859Z,1023.16
2016-04-21T02:30:54.846Z,1023.12
2016-04-21T02:31:55.036Z,1023.11
2016-04-21T02:32:54.835Z,1023.09
2016-04-21T02:33:54.823Z,1023.07
2016-04-21T02:34:55.029Z,1023.09
2016-04-21T02:35:55.015Z,1023.07
2016-04-21T02:36:55.019Z,1023.01
2016-04-21T02:37:54.818Z,1022.99
2016-04-21T02:38:55.008Z,1022.97
2016-04-21T02:39:54.793Z,1022.94
2016-04-21T02:40:54.998Z,1022.93
2016-04-21T02:41:54.798Z,1022.97
2016-04-21T02:42:54.784Z,1022.96
2016-04-21T02:43:54.787Z,1022.91
2016-04-21T02:44:54.790Z,1022.94
2016-04-21T02:45:54.761Z,1022.9
2016-04-21T02:46:54.968Z,1022.89
2016-04-21T02:47:54.954Z,1022.91
2016-04-21T02:48:54.754Z,1022.87
2016-04-21T02:49:54.959Z,1022.83
2016-04-21T02:50:54.947Z,1022.85
2016-04-21T02:51:54.950Z,1022.82
2016-04-21T02:52:54.936Z,1022.85
2016-04-21T02:53:54.736Z,1022.78
2016-04-21T02:54:54.739Z,1022.78
2016-04-21T02:55:54.928Z,1022.74
2016-04-21T02:56:54.713Z,1022.73
2016-04-21T02:57:54.715Z,1022.71
2016-04-21T02:58:54.906Z,1022.69
2016-04-21T02:59:54.908Z,1022.71
2016-04-21T03:00:54.896Z,1022.7
2016-04-21T03:01:54.899Z,1022.74
2016-04-21T03:02:54.697Z,1022.75
2016-04-21T03:03:54.685Z,1022.75
2016-04-21T03:04:54.875Z,1022.75
2016-04-21T03:05:54.877Z,1022.8
2016-04-21T03:06:54.865Z,1022.76
2016-04-21T03:07:54.867Z,1022.75
2016-04-21T03:08:54.870Z,1022.76
2016-04-21T03:09:54.655Z,1022.8
2016-04-21T03:10:54.844Z,1022.77
2016-04-21T03:11:54.847Z,1022.76
2016-04-21T03:12:54.849Z,1022.75
2016-04-21T03:13:54.837Z,1022.8
2016-04-21T03:14:54.840Z,1022.76
2016-04-21T03:15:54.826Z,1022.78
2016-04-21T03:16:54.829Z,1022.81
2016-04-21T03:17:54.612Z,1022.79
2016-04-21T03:18:54.615Z,1022.79
2016-04-21T03:19:54.603Z,1022.78
2016-04-21T03:20:54.605Z,1022.8
2016-04-21T03:21:54.597Z,1022.79
2016-04-21T03:22:54.604Z,1022.81
2016-04-21T03:23:54.794Z,1022.78
2016-04-21T03:24:54.781Z,1022.8
2016-04-21T03:25:54.784Z,1022.8
2016-04-21T03:26:54.771Z,1022.82
2016-04-21T03:27:54.570Z,1022.75
2016-04-21T03:28:54.558Z,1022.75
2016-04-21T03:29:54.545Z,1022.73
2016-04-21T03:30:54.750Z,1022.71
2016-04-21T03:31:54.550Z,1022.68
2016-04-21T03:32:54.740Z,1022.67
2016-04-21T03:33:54.540Z,1022.65
2016-04-21T03:34:54.527Z,1022.65
2016-04-21T03:35:54.733Z,1022.67
2016-04-21T03:36:54.720Z,1022.67
2016-04-21T03:37:54.520Z,1022.69
2016-04-21T03:38:54.709Z,1022.68
2016-04-21T03:39:54.509Z,1022.67
2016-04-21T03:40:54.699Z,1022.67
2016-04-21T03:41:54.499Z,1022.63
2016-04-21T03:42:54.486Z,1022.64
2016-04-21T03:43:54.692Z,1022.7
2016-04-21T03:44:54.475Z,1022.69
2016-04-21T03:45:54.682Z,1022.68
2016-04-21T03:46:54.668Z,1022.69
2016-04-21T03:47:54.469Z,1022.7
2016-04-21T03:48:54.658Z,1022.76
2016-04-21T03:49:54.661Z,1022.72
2016-04-21T03:50:54.445Z,1022.76
2016-04-21T03:51:54.448Z,1022.78
2016-04-21T03:52:54.637Z,1022.77
2016-04-21T03:53:54.438Z,1022.81
2016-04-21T03:54:54.424Z,1022.75
2016-04-21T03:55:54.630Z,1022.73
2016-04-21T03:56:54.618Z,1022.76
2016-04-21T03:57:54.620Z,1022.74
2016-04-21T03:58:54.404Z,1022.76
2016-04-21T03:59:54.609Z,1022.76
2016-04-21T04:00:54.597Z,1022.76
2016-04-21T04:01:54.396Z,1022.77
2016-04-21T04:02:54.384Z,1022.76
2016-04-21T04:03:54.386Z,1022.75
2016-04-21T04:04:54.592Z,1022.78
2016-04-21T04:05:54.376Z,1022.74
2016-04-21T04:06:54.581Z,1022.78
2016-04-21T04:07:54.366Z,1022.74
2016-04-21T04:08:54.352Z,1022.74
2016-04-21T04:09:54.356Z,1022.73
2016-04-21T04:10:54.561Z,1022.73
2016-04-21T04:11:54.345Z,1022.71
2016-04-21T04:12:54.332Z,1022.72
2016-04-21T04:13:54.335Z,1022.7
2016-04-21T04:14:54.524Z,1022.73
2016-04-21T04:15:54.527Z,1022.74
2016-04-21T04:16:54.530Z,1022.73
2016-04-21T04:17:54.518Z,1022.76
2016-04-21T04:18:54.505Z,1022.75
2016-04-21T04:19:54.507Z,1022.73
2016-04-21T04:20:54.510Z,1022.74
2016-04-21T04:21:54.497Z,1022.71
2016-04-21T04:22:54.282Z,1022.68
2016-04-21T04:23:54.284Z,1022.65
2016-04-21T04:24:54.490Z,1022.67
2016-04-21T04:25:54.476Z,1022.67
2016-04-21T04:26:54.479Z,1022.68
2016-04-21T04:27:54.466Z,1022.67
2016-04-21T04:28:54.265Z,1022.65
2016-04-21T04:29:54.457Z,1022.65
2016-04-21T04:30:54.443Z,1022.65
2016-04-21T04:31:54.446Z,1022.64
2016-04-21T04:32:54.448Z,1022.62
2016-04-21T04:33:54.436Z,1022.63
2016-04-21T04:34:54.438Z,1022.66
2016-04-21T04:35:54.426Z,1022.66
2016-04-21T04:36:54.428Z,1022.65
2016-04-21T04:37:54.415Z,1022.63
2016-04-21T04:38:54.418Z,1022.65
2016-04-21T04:39:54.202Z,1022.63
2016-04-21T04:40:54.392Z,1022.65
2016-04-21T04:41:54.191Z,1022.66
2016-04-21T04:42:54.178Z,1022.7
2016-04-21T04:43:54.181Z,1022.67
2016-04-21T04:44:54.387Z,1022.66
2016-04-21T04:45:54.374Z,1022.66
2016-04-21T04:46:54.158Z,1022.67
2016-04-21T04:47:54.363Z,1022.65
2016-04-21T04:48:54.367Z,1022.64
2016-04-21T04:49:54.354Z,1022.63
2016-04-21T04:50:54.357Z,1022.65
2016-04-21T04:51:54.343Z,1022.64
2016-04-21T04:52:54.346Z,1022.64
2016-04-21T04:53:54.333Z,1022.62
2016-04-21T04:54:54.336Z,1022.64
2016-04-21T04:55:54.324Z,1022.57
2016-04-21T04:56:54.310Z,1022.57
2016-04-21T04:57:54.313Z,1022.55
2016-04-21T04:58:54.315Z,1022.55
2016-04-21T04:59:54.099Z,1022.55
2016-04-21T05:00:54.086Z,1022.54
2016-04-21T05:01:54.090Z,1022.53
2016-04-21T05:02:54.076Z,1022.49
2016-04-21T05:03:54.282Z,1022.5
2016-04-21T05:04:54.065Z,1022.49
2016-04-21T05:05:54.272Z,1022.46
2016-04-21T05:06:54.055Z,1022.5
2016-04-21T05:07:54.058Z,1022.49
2016-04-21T05:08:54.046Z,1022.52
2016-04-21T05:09:54.048Z,1022.51
2016-04-21T05:10:54.036Z,1022.54
2016-04-21T05:11:54.241Z,1022.53
2016-04-21T05:12:54.228Z,1022.54
2016-04-21T05:13:54.027Z,1022.52
2016-04-21T05:14:54.014Z,1022.51
2016-04-21T05:15:54.033Z,1022.51
2016-04-21T05:16:54.005Z,1022.52
2016-04-21T05:17:54.007Z,1022.54
2016-04-21T05:18:54.197Z,1022.53
2016-04-21T05:19:54.200Z,1022.51
2016-04-21T05:20:54.188Z,1022.52
2016-04-21T05:21:54.190Z,1022.55
2016-04-21T05:22:54.177Z,1022.52
2016-04-21T05:23:53.976Z,1022.54
2016-04-21T05:24:54.166Z,1022.54
2016-04-21T05:25:53.966Z,1022.58
2016-04-21T05:26:54.156Z,1022.54
2016-04-21T05:27:54.159Z,1022.54
2016-04-21T05:28:53.943Z,1022.53
2016-04-21T05:29:54.149Z,1022.51
2016-04-21T05:30:53.933Z,1022.52
2016-04-21T05:31:54.138Z,1022.5
2016-04-21T05:32:53.927Z,1022.45
2016-04-21T05:33:54.149Z,1022.49
2016-04-21T05:34:53.918Z,1022.48
2016-04-21T05:35:53.920Z,1022.47
2016-04-21T05:36:53.922Z,1022.46
2016-04-21T05:37:53.900Z,1022.42
2016-04-21T05:38:53.934Z,1022.44
2016-04-21T05:39:53.890Z,1022.44
2016-04-21T05:40:54.080Z,1022.43
2016-04-21T05:41:53.879Z,1022.46
2016-04-21T05:42:54.084Z,1022.43
2016-04-21T05:43:53.870Z,1022.45
2016-04-21T05:44:53.856Z,1022.45
2016-04-21T05:45:54.061Z,1022.43
2016-04-21T05:46:54.050Z,1022.44
2016-04-21T05:47:54.052Z,1022.39
2016-04-21T05:48:54.039Z,1022.36
2016-04-21T05:49:53.839Z,1022.33
2016-04-21T05:50:54.028Z,1022.3
2016-04-21T05:51:54.031Z,1022.31
2016-04-21T05:52:53.815Z,1022.3
2016-04-21T05:53:53.834Z,1022.31
2016-04-21T05:54:53.805Z,1022.31
2016-04-21T05:55:53.791Z,1022.32
2016-04-21T05:56:53.998Z,1022.3
2016-04-21T05:57:54.000Z,1022.33
2016-04-21T05:58:53.987Z,1022.33
2016-04-21T05:59:53.788Z,1022.34
2016-04-21T06:00:53.977Z,1022.35
2016-04-21T06:01:53.980Z,1022.31
2016-04-21T06:02:53.968Z,1022.34
2016-04-21T06:03:53.970Z,1022.33
2016-04-21T06:04:53.754Z,1022.3
2016-04-21T06:05:53.741Z,1022.28
2016-04-21T06:06:53.946Z,1022.28
2016-04-21T06:07:53.949Z,1022.27
2016-04-21T06:08:53.951Z,1022.31
2016-04-21T06:09:53.720Z,1022.3
2016-04-21T06:10:53.723Z,1022.32
2016-04-21T06:11:53.726Z,1022.33
2016-04-21T06:12:53.915Z,1022.33
2016-04-21T06:13:53.918Z,1022.33
2016-04-21T06:14:53.906Z,1022.35
2016-04-21T06:15:53.909Z,1022.4
2016-04-21T06:16:53.895Z,1022.39
2016-04-21T06:17:53.695Z,1022.4
2016-04-21T06:18:53.901Z,1022.41
2016-04-21T06:19:53.888Z,1022.42
2016-04-21T06:20:53.875Z,1022.46
2016-04-21T06:21:53.877Z,1022.44
2016-04-21T06:22:53.864Z,1022.42
2016-04-21T06:23:53.680Z,1022.47
2016-04-21T06:24:53.651Z,1022.46
2016-04-21T06:25:53.638Z,1022.48
2016-04-21T06:26:53.657Z,1022.49
2016-04-21T06:27:53.847Z,1022.44
2016-04-21T06:28:53.833Z,1022.44
2016-04-21T06:29:53.633Z,1022.47
2016-04-21T06:30:53.824Z,1022.46
2016-04-21T06:31:53.827Z,1022.43
2016-04-21T06:32:53.814Z,1022.45
2016-04-21T06:33:53.613Z,1022.46
2016-04-21T06:34:53.804Z,1022.49
2016-04-21T06:35:53.602Z,1022.52
2016-04-21T06:36:53.793Z,1022.53
2016-04-21T06:37:53.593Z,1022.52
2016-04-21T06:38:53.783Z,1022.47
2016-04-21T06:39:53.567Z,1022.5
2016-04-21T06:40:53.773Z,1022.52
2016-04-21T06:41:53.573Z,1022.55
2016-04-21T06:42:53.559Z,1022.58
2016-04-21T06:43:53.561Z,1022.59
2016-04-21T06:44:53.549Z,1022.61
2016-04-21T06:45:53.754Z,1022.59
2016-04-21T06:46:53.539Z,1022.6
2016-04-21T06:47:53.745Z,1022.62
2016-04-21T06:48:53.529Z,1022.64
2016-04-21T06:49:53.531Z,1022.59
2016-04-21T06:50:53.737Z,1022.6
2016-04-21T06:51:53.725Z,1022.58
2016-04-21T06:52:53.711Z,1022.54
2016-04-21T06:53:53.730Z,1022.56
2016-04-21T06:54:53.717Z,1022.57
2016-04-21T06:55:53.500Z,1022.58
2016-04-21T06:56:53.691Z,1022.56
2016-04-21T06:57:53.694Z,1022.55
2016-04-21T06:58:53.477Z,1022.54
2016-04-21T06:59:53.683Z,1022.52
2016-04-21T07:00:53.686Z,1022.53
2016-04-21T07:01:53.672Z,1022.52
2016-04-21T07:02:53.457Z,1022.47
2016-04-21T07:03:53.663Z,1022.49
2016-04-21T07:04:53.446Z,1022.49
2016-04-21T07:05:53.652Z,1022.5
2016-04-21T07:06:53.436Z,1022.45
2016-04-21T07:07:53.642Z,1022.46
2016-04-21T07:08:53.645Z,1022.49
2016-04-21T07:09:53.632Z,1022.48
2016-04-21T07:10:53.415Z,1022.46
2016-04-21T07:11:53.621Z,1022.46
2016-04-21T07:12:53.421Z,1022.48
2016-04-21T07:13:53.612Z,1022.42
2016-04-21T07:14:53.614Z,1022.44
2016-04-21T07:15:53.398Z,1022.4
2016-04-21T07:16:53.384Z,1022.41
2016-04-21T07:17:53.606Z,1022.37
2016-04-21T07:18:53.593Z,1022.36
2016-04-21T07:19:53.580Z,1022.33
2016-04-21T07:20:53.381Z,1022.36
2016-04-21T07:21:53.570Z,1022.32
2016-04-21T07:22:53.369Z,1022.33
2016-04-21T07:23:53.592Z,1022.36
2016-04-21T07:24:53.360Z,1022.35
2016-04-21T07:25:53.362Z,1022.31
2016-04-21T07:26:53.569Z,1022.35
2016-04-21T07:27:53.556Z,1022.32
2016-04-21T07:28:53.339Z,1022.32
2016-04-21T07:29:53.342Z,1022.3
2016-04-21T07:30:53.329Z,1022.36
2016-04-21T07:31:53.316Z,1022.37
2016-04-21T07:32:53.522Z,1022.36
2016-04-21T07:33:53.524Z,1022.38
2016-04-21T07:34:53.511Z,1022.35
2016-04-21T07:35:53.513Z,1022.33
2016-04-21T07:36:53.501Z,1022.35
2016-04-21T07:37:53.302Z,1022.32
2016-04-21T07:38:53.507Z,1022.29
2016-04-21T07:39:53.493Z,1022.29
2016-04-21T07:40:53.497Z,1022.26
2016-04-21T07:41:53.280Z,1022.2
2016-04-21T07:42:53.283Z,1022.2
2016-04-21T07:43:53.474Z,1022.17
2016-04-21T07:44:53.476Z,1022.16
2016-04-21T07:45:53.463Z,1022.13
2016-04-21T07:46:53.465Z,1022.14
2016-04-21T07:47:53.453Z,1022.06
2016-04-21T07:48:53.253Z,1022.14
2016-04-21T07:49:53.458Z,1022.11
2016-04-21T07:50:53.445Z,1022.13
2016-04-21T07:51:53.448Z,1022.07
2016-04-21T07:52:53.451Z,1022.1
2016-04-21T07:53:53.266Z,1022.09
2016-04-21T07:54:53.237Z,1022.12
2016-04-21T07:55:53.428Z,1022.11
2016-04-21T07:56:53.211Z,1022.13
2016-04-21T07:57:53.433Z,1022.15
2016-04-21T07:58:53.405Z,1022.1
2016-04-21T07:59:53.407Z,1022.1
2016-04-21T08:00:53.191Z,1022.05
2016-04-21T08:01:53.193Z,1022.01
2016-04-21T08:02:53.197Z,1021.98
2016-04-21T08:03:53.199Z,1021.98
2016-04-21T08:04:53.185Z,1021.97
2016-04-21T08:05:53.377Z,1021.96
2016-04-21T08:06:53.379Z,1021.94
2016-04-21T08:07:53.382Z,1021.93
2016-04-21T08:08:53.166Z,1021.94
2016-04-21T08:09:53.371Z,1021.94
2016-04-21T08:10:53.155Z,1021.93
2016-04-21T08:11:53.360Z,1021.93
2016-04-21T08:12:53.145Z,1021.96
2016-04-21T08:13:53.351Z,1021.93
2016-04-21T08:14:53.135Z,1021.94
2016-04-21T08:15:53.341Z,1021.88
2016-04-21T08:16:53.343Z,1021.9
2016-04-21T08:17:53.127Z,1021.88
2016-04-21T08:18:53.333Z,1021.88
2016-04-21T08:19:53.118Z,1021.9
2016-04-21T08:20:53.323Z,1021.87
2016-04-21T08:21:53.326Z,1021.86
2016-04-21T08:22:53.312Z,1021.85
2016-04-21T08:23:53.314Z,1021.89
2016-04-21T08:24:53.303Z,1021.88
2016-04-21T08:25:53.102Z,1021.93
2016-04-21T08:26:53.355Z,1021.91
2016-04-21T08:27:53.294Z,1021.96
2016-04-21T08:28:53.282Z,1021.94
2016-04-21T08:29:53.081Z,1021.92
2016-04-21T08:30:53.286Z,1021.94
2016-04-21T08:31:53.275Z,1021.94
2016-04-21T08:32:53.277Z,1021.93
2016-04-21T08:33:53.264Z,1021.9
2016-04-21T08:34:53.064Z,1021.95
2016-04-21T08:35:53.066Z,1021.92
2016-04-21T08:36:53.257Z,1021.94
2016-04-21T08:37:53.259Z,1021.97
2016-04-21T08:38:53.246Z,1021.97
2016-04-21T08:39:53.046Z,1021.99
2016-04-21T08:40:53.032Z,1021.99
2016-04-21T08:41:53.036Z,1021.97
2016-04-21T08:42:53.241Z,1021.94
2016-04-21T08:43:53.229Z,1021.93
2016-04-21T08:44:53.029Z,1021.94
2016-04-21T08:45:53.015Z,1021.94
2016-04-21T08:46:53.220Z,1021.92
2016-04-21T08:47:53.005Z,1021.96
2016-04-21T08:48:53.211Z,1021.98
2016-04-21T08:49:53.010Z,1021.95
2016-04-21T08:50:53.215Z,1021.96
2016-04-21T08:51:53.000Z,1021.95
2016-04-21T08:52:53.195Z,1021.95
2016-04-21T08:53:52.995Z,1021.9
2016-04-21T08:54:53.184Z,1021.88
2016-04-21T08:55:52.984Z,1021.85
2016-04-21T08:56:53.174Z,1021.88
2016-04-21T08:57:53.177Z,1021.84
2016-04-21T08:58:53.180Z,1021.85
2016-04-21T08:59:53.166Z,1021.84
2016-04-21T09:00:53.169Z,1021.82
2016-04-21T09:01:53.158Z,1021.79
2016-04-21T09:02:53.160Z,1021.81
2016-04-21T09:03:53.146Z,1021.8
2016-04-21T09:04:53.149Z,1021.75
2016-04-21T09:05:53.152Z,1021.75
2016-04-21T09:06:53.139Z,1021.71
2016-04-21T09:07:53.141Z,1021.74
2016-04-21T09:08:53.129Z,1021.7
2016-04-21T09:09:53.132Z,1021.7
2016-04-21T09:10:52.915Z,1021.7
2016-04-21T09:11:53.121Z,1021.68
2016-04-21T09:12:52.920Z,1021.67
2016-04-21T09:13:53.111Z,1021.66
2016-04-21T09:14:52.911Z,1021.6
2016-04-21T09:15:52.898Z,1021.6
2016-04-21T09:16:52.900Z,1021.57
2016-04-21T09:17:52.903Z,1021.51
2016-04-21T09:18:52.889Z,1021.48
2016-04-21T09:19:52.893Z,1021.5
2016-04-21T09:20:52.879Z,1021.48
2016-04-21T09:21:53.086Z,1021.51
2016-04-21T09:22:52.884Z,1021.49
2016-04-21T09:23:52.872Z,1021.46
2016-04-21T09:24:53.078Z,1021.47
2016-04-21T09:25:53.081Z,1021.46
2016-04-21T09:26:53.068Z,1021.48
2016-04-21T09:27:53.071Z,1021.41
2016-04-21T09:28:53.058Z,1021.42
2016-04-21T09:29:52.858Z,1021.48
2016-04-21T09:30:52.860Z,1021.45
2016-04-21T09:31:52.847Z,1021.45
2016-04-21T09:32:52.833Z,1021.45
2016-04-21T09:33:53.039Z,1021.46
2016-04-21T09:34:52.839Z,1021.41
2016-04-21T09:35:53.045Z,1021.38
2016-04-21T09:36:52.829Z,1021.43
2016-04-21T09:37:53.035Z,1021.38
2016-04-21T09:38:53.021Z,1021.42
2016-04-21T09:39:52.822Z,1021.39
2016-04-21T09:40:53.027Z,1021.37
2016-04-21T09:41:52.811Z,1021.37
2016-04-21T09:42:52.813Z,1021.37
2016-04-21T09:43:53.004Z,1021.37
2016-04-21T09:44:52.804Z,1021.34
2016-04-21T09:45:52.790Z,1021.37
2016-04-21T09:46:52.996Z,1021.34
2016-04-21T09:47:52.999Z,1021.29
2016-04-21T09:48:52.783Z,1021.33
2016-04-21T09:49:52.802Z,1021.36
2016-04-21T09:50:52.992Z,1021.31
2016-04-21T09:51:52.978Z,1021.3
2016-04-21T09:52:52.779Z,1021.28
2016-04-21T09:53:52.968Z,1021.23
2016-04-21T09:54:52.768Z,1021.21
2016-04-21T09:55:52.974Z,1021.22
2016-04-21T09:56:52.758Z,1021.21
2016-04-21T09:57:52.761Z,1021.16
2016-04-21T09:58:52.747Z,1021.16
2016-04-21T09:59:52.751Z,1021.14
2016-04-21T10:00:52.956Z,1021.09
2016-04-21T10:01:52.944Z,1021.07
2016-04-21T10:02:52.743Z,1021.08
2016-04-21T10:03:52.745Z,1021.1
2016-04-21T10:04:52.935Z,1021.09
2016-04-21T10:05:52.719Z,1021.1
2016-04-21T10:06:52.925Z,1021.1
2016-04-21T10:07:52.928Z,1021.08
2016-04-21T10:08:52.915Z,1021.09
2016-04-21T10:09:52.715Z,1021.08
2016-04-21T10:10:52.953Z,1021.08
2016-04-21T10:11:52.984Z,1021.07
2016-04-21T10:12:53.030Z,1021.07
2016-04-21T10:13:53.061Z,1021.05
2016-04-21T10:14:53.108Z,1021.06
2016-04-21T10:15:53.119Z,1021.03
2016-04-21T10:16:53.138Z,1021.03
2016-04-21T10:17:53.156Z,1021.01
2016-04-21T10:18:53.159Z,1021.03
2016-04-21T10:19:52.975Z,1020.97
2016-04-21T10:20:53.188Z,1021
2016-04-21T10:21:52.977Z,1021
2016-04-21T10:22:53.191Z,1020.98
2016-04-21T10:23:53.183Z,1020.96
2016-04-21T10:24:53.222Z,1020.92
2016-04-21T10:25:53.197Z,1020.92
2016-04-21T10:26:52.982Z,1020.92
2016-04-21T10:27:53.190Z,1020.9
2016-04-21T10:28:53.180Z,1020.92
2016-04-21T10:29:53.185Z,1020.91
2016-04-21T10:30:53.189Z,1020.87
2016-04-21T10:31:52.973Z,1020.87
2016-04-21T10:32:53.179Z,1020.91
2016-04-21T10:33:52.979Z,1020.9
2016-04-21T10:34:53.170Z,1020.85
2016-04-21T10:35:52.955Z,1020.83
2016-04-21T10:36:53.161Z,1020.85
2016-04-21T10:37:53.165Z,1020.85
2016-04-21T10:38:53.151Z,1020.79
2016-04-21T10:39:52.951Z,1020.76
2016-04-21T10:40:52.954Z,1020.77
2016-04-21T10:41:52.941Z,1020.72
2016-04-21T10:42:53.148Z,1020.75
2016-04-21T10:43:53.150Z,1020.7
2016-04-21T10:44:53.137Z,1020.71
2016-04-21T10:45:53.140Z,1020.7
2016-04-21T10:46:53.126Z,1020.65
2016-04-21T10:47:53.130Z,1020.68
2016-04-21T10:48:53.132Z,1020.69
2016-04-21T10:49:53.120Z,1020.66
2016-04-21T10:50:53.123Z,1020.66
2016-04-21T10:51:53.109Z,1020.65
2016-04-21T10:52:52.909Z,1020.62
2016-04-21T10:53:52.912Z,1020.62
2016-04-21T10:54:52.898Z,1020.63
2016-04-21T10:55:53.104Z,1020.61
2016-04-21T10:56:52.903Z,1020.58
2016-04-21T10:57:52.891Z,1020.56
2016-04-21T10:58:53.097Z,1020.56
2016-04-21T10:59:52.880Z,1020.55
2016-04-21T11:00:53.086Z,1020.54
2016-04-21T11:01:52.870Z,1020.51
2016-04-21T11:02:53.077Z,1020.49
2016-04-21T11:03:53.079Z,1020.49
2016-04-21T11:04:53.082Z,1020.48
2016-04-21T11:05:52.866Z,1020.43
2016-04-21T11:06:52.853Z,1020.45
2016-04-21T11:07:52.855Z,1020.4
2016-04-21T11:08:52.858Z,1020.4
2016-04-21T11:09:52.845Z,1020.38
2016-04-21T11:10:53.051Z,1020.4
2016-04-21T11:11:53.054Z,1020.4
2016-04-21T11:12:53.057Z,1020.4
2016-04-21T11:13:53.043Z,1020.4
2016-04-21T11:14:53.030Z,1020.38
2016-04-21T11:15:53.033Z,1020.37
2016-04-21T11:16:53.036Z,1020.34
2016-04-21T11:17:52.819Z,1020.31
2016-04-21T11:18:53.025Z,1020.35
2016-04-21T11:19:53.028Z,1020.31
2016-04-21T11:20:53.015Z,1020.27
2016-04-21T11:21:53.017Z,1020.31
2016-04-21T11:22:52.818Z,1020.28
2016-04-21T11:23:53.008Z,1020.24
2016-04-21T11:24:53.011Z,1020.29
2016-04-21T11:25:52.997Z,1020.24
2016-04-21T11:26:53.000Z,1020.25
2016-04-21T11:27:53.003Z,1020.23
2016-04-21T11:28:52.990Z,1020.21
2016-04-21T11:29:52.789Z,1020.23
2016-04-21T11:30:52.995Z,1020.24
2016-04-21T11:31:52.779Z,1020.26
2016-04-21T11:32:52.985Z,1020.27
2016-04-21T11:33:52.972Z,1020.26
2016-04-21T11:34:52.772Z,1020.25
2016-04-21T11:35:52.758Z,1020.26
2016-04-21T11:36:52.980Z,1020.23
2016-04-21T11:37:52.763Z,1020.23
2016-04-21T11:38:52.954Z,1020.19
2016-04-21T11:39:52.957Z,1020.21
2016-04-21T11:40:52.960Z,1020.18
2016-04-21T11:41:52.947Z,1020.12
2016-04-21T11:42:52.746Z,1020.1
2016-04-21T11:43:52.749Z,1020.08
2016-04-21T11:44:52.940Z,1020.09
2016-04-21T11:45:52.943Z,1020.1
2016-04-21T11:46:52.726Z,1020.11
2016-04-21T11:47:52.931Z,1020.07
2016-04-21T11:48:52.934Z,1020.11
2016-04-21T11:49:52.734Z,1020.06
2016-04-21T11:50:52.721Z,1020.05
2016-04-21T11:51:52.912Z,1020.06
2016-04-21T11:52:52.961Z,1020.03
2016-04-21T11:53:52.916Z,1020.03
2016-04-21T11:54:52.903Z,1019.97
2016-04-21T11:55:52.906Z,1019.98
2016-04-21T11:56:52.909Z,1019.95
2016-04-21T11:57:52.896Z,1019.94
2016-04-21T11:58:52.898Z,1019.91
2016-04-21T11:59:52.886Z,1019.9
2016-04-21T12:00:52.888Z,1019.9
2016-04-21T12:01:52.891Z,1019.85
2016-04-21T12:02:52.691Z,1019.82
2016-04-21T12:03:52.881Z,1019.8
2016-04-21T12:04:52.884Z,1019.79
2016-04-21T12:05:52.886Z,1019.77
2016-04-21T12:06:52.874Z,1019.73
2016-04-21T12:07:52.876Z,1019.72
2016-04-21T12:08:52.660Z,1019.73